<?xml version="1.0" encoding="UTF-8" standalone="no" ?>
<gpx xmlns="http://www.topografix.com/GPX/1/1" xmlns:xsi="http://www.w3.org/2001/XMLSchema-instance" xsi:schemaLocation="http://www.topografix.com/GPX/1/1 http://www.topografix.com/GPX/1/1/gpx.xsd" version="1.1" creator="VisuGPX - https://www.visugpx.com">
  <metadata>
    <name>L Aulp Du Seuil</name>
    <desc><![CDATA[grp_trc:[nouvelles]]]></desc>
  </metadata>
  <trk>
    <name><![CDATA[19 juin 2021 à 11:22:05]]></name>
    <cmt><![CDATA[19 juin 2021 à 11:22:05]]></cmt>
    <trkseg>
      <trkpt lat="45.69558" lon="6.27171">
        <ele>1820</ele>
        <time>2021-06-19T09:22:13Z</time>
      </trkpt>
      <trkpt lat="45.69547" lon="6.27007">
        <ele>1879</ele>
        <time>2021-06-19T09:22:28Z</time>
      </trkpt>
      <trkpt lat="45.69521" lon="6.27037">
        <ele>1890</ele>
        <time>2021-06-19T09:36:14Z</time>
      </trkpt>
      <trkpt lat="45.69515" lon="6.27052">
        <ele>1921</ele>
        <time>2021-06-19T09:44:53Z</time>
      </trkpt>
      <trkpt lat="45.69501" lon="6.27057">
        <ele>1922</ele>
        <time>2021-06-19T09:45:59Z</time>
      </trkpt>
      <trkpt lat="45.69489" lon="6.27066">
        <ele>1921</ele>
        <time>2021-06-19T09:46:30Z</time>
      </trkpt>
      <trkpt lat="45.69487" lon="6.27057">
        <ele>1922</ele>
        <time>2021-06-19T09:46:42Z</time>
      </trkpt>
      <trkpt lat="45.69483" lon="6.27047">
        <ele>1925</ele>
        <time>2021-06-19T09:47:01Z</time>
      </trkpt>
      <trkpt lat="45.69482" lon="6.27036">
        <ele>1926</ele>
        <time>2021-06-19T09:47:13Z</time>
      </trkpt>
      <trkpt lat="45.6948" lon="6.27028">
        <ele>1932</ele>
        <time>2021-06-19T09:47:25Z</time>
      </trkpt>
      <trkpt lat="45.69475" lon="6.27026">
        <ele>1931</ele>
        <time>2021-06-19T09:47:43Z</time>
      </trkpt>
      <trkpt lat="45.69468" lon="6.27024">
        <ele>1931</ele>
        <time>2021-06-19T09:47:56Z</time>
      </trkpt>
      <trkpt lat="45.69463" lon="6.27021">
        <ele>1936</ele>
        <time>2021-06-19T09:48:08Z</time>
      </trkpt>
      <trkpt lat="45.69455" lon="6.27026">
        <ele>1939</ele>
        <time>2021-06-19T09:48:32Z</time>
      </trkpt>
      <trkpt lat="45.69454" lon="6.27015">
        <ele>1933</ele>
        <time>2021-06-19T09:48:44Z</time>
      </trkpt>
      <trkpt lat="45.69449" lon="6.27007">
        <ele>1930</ele>
        <time>2021-06-19T09:48:54Z</time>
      </trkpt>
      <trkpt lat="45.69446" lon="6.26999">
        <ele>1930</ele>
        <time>2021-06-19T09:49:01Z</time>
      </trkpt>
      <trkpt lat="45.6943" lon="6.26985">
        <ele>1927</ele>
        <time>2021-06-19T09:49:20Z</time>
      </trkpt>
      <trkpt lat="45.69429" lon="6.26977">
        <ele>1927</ele>
        <time>2021-06-19T09:49:26Z</time>
      </trkpt>
      <trkpt lat="45.69425" lon="6.26972">
        <ele>1926</ele>
        <time>2021-06-19T09:49:32Z</time>
      </trkpt>
      <trkpt lat="45.69419" lon="6.26969">
        <ele>1927</ele>
        <time>2021-06-19T09:49:38Z</time>
      </trkpt>
      <trkpt lat="45.69409" lon="6.26973">
        <ele>1927</ele>
        <time>2021-06-19T09:49:47Z</time>
      </trkpt>
      <trkpt lat="45.69404" lon="6.26975">
        <ele>1928</ele>
        <time>2021-06-19T09:49:51Z</time>
      </trkpt>
      <trkpt lat="45.69401" lon="6.26967">
        <ele>1928</ele>
        <time>2021-06-19T09:50:05Z</time>
      </trkpt>
      <trkpt lat="45.69401" lon="6.26957">
        <ele>1929</ele>
        <time>2021-06-19T09:50:11Z</time>
      </trkpt>
      <trkpt lat="45.69401" lon="6.26948">
        <ele>1929</ele>
        <time>2021-06-19T09:50:17Z</time>
      </trkpt>
      <trkpt lat="45.694" lon="6.2694">
        <ele>1929</ele>
        <time>2021-06-19T09:50:25Z</time>
      </trkpt>
      <trkpt lat="45.69395" lon="6.2692">
        <ele>1924</ele>
        <time>2021-06-19T09:50:47Z</time>
      </trkpt>
      <trkpt lat="45.69394" lon="6.26913">
        <ele>1925</ele>
        <time>2021-06-19T09:50:56Z</time>
      </trkpt>
      <trkpt lat="45.69384" lon="6.26905">
        <ele>1920</ele>
        <time>2021-06-19T09:51:13Z</time>
      </trkpt>
      <trkpt lat="45.69383" lon="6.26889">
        <ele>1921</ele>
        <time>2021-06-19T09:51:26Z</time>
      </trkpt>
      <trkpt lat="45.69383" lon="6.26881">
        <ele>1922</ele>
        <time>2021-06-19T09:51:32Z</time>
      </trkpt>
      <trkpt lat="45.6939" lon="6.26877">
        <ele>1922</ele>
        <time>2021-06-19T09:51:43Z</time>
      </trkpt>
      <trkpt lat="45.69403" lon="6.26873">
        <ele>1918</ele>
        <time>2021-06-19T09:51:57Z</time>
      </trkpt>
      <trkpt lat="45.6942" lon="6.26865">
        <ele>1917</ele>
        <time>2021-06-19T09:52:08Z</time>
      </trkpt>
      <trkpt lat="45.69425" lon="6.26861">
        <ele>1918</ele>
        <time>2021-06-19T09:52:12Z</time>
      </trkpt>
      <trkpt lat="45.69433" lon="6.26855">
        <ele>1915</ele>
        <time>2021-06-19T09:52:23Z</time>
      </trkpt>
      <trkpt lat="45.69439" lon="6.26855">
        <ele>1914</ele>
        <time>2021-06-19T09:52:29Z</time>
      </trkpt>
      <trkpt lat="45.69444" lon="6.26858">
        <ele>1913</ele>
        <time>2021-06-19T09:52:33Z</time>
      </trkpt>
      <trkpt lat="45.6945" lon="6.26857">
        <ele>1911</ele>
        <time>2021-06-19T09:52:38Z</time>
      </trkpt>
      <trkpt lat="45.69455" lon="6.26852">
        <ele>1910</ele>
        <time>2021-06-19T09:52:42Z</time>
      </trkpt>
      <trkpt lat="45.6946" lon="6.26856">
        <ele>1909</ele>
        <time>2021-06-19T09:52:47Z</time>
      </trkpt>
      <trkpt lat="45.69466" lon="6.26869">
        <ele>1907</ele>
        <time>2021-06-19T09:52:56Z</time>
      </trkpt>
      <trkpt lat="45.69466" lon="6.26878">
        <ele>1906</ele>
        <time>2021-06-19T09:53:01Z</time>
      </trkpt>
      <trkpt lat="45.69469" lon="6.26887">
        <ele>1903</ele>
        <time>2021-06-19T09:53:11Z</time>
      </trkpt>
      <trkpt lat="45.69491" lon="6.26897">
        <ele>1896</ele>
        <time>2021-06-19T09:53:41Z</time>
      </trkpt>
      <trkpt lat="45.69499" lon="6.26893">
        <ele>1894</ele>
        <time>2021-06-19T09:53:53Z</time>
      </trkpt>
      <trkpt lat="45.69502" lon="6.26902">
        <ele>1893</ele>
        <time>2021-06-19T09:53:58Z</time>
      </trkpt>
      <trkpt lat="45.69513" lon="6.26901">
        <ele>1888</ele>
        <time>2021-06-19T09:54:13Z</time>
      </trkpt>
      <trkpt lat="45.69519" lon="6.26905">
        <ele>1885</ele>
        <time>2021-06-19T09:54:27Z</time>
      </trkpt>
      <trkpt lat="45.69522" lon="6.26911">
        <ele>1885</ele>
        <time>2021-06-19T09:54:34Z</time>
      </trkpt>
      <trkpt lat="45.69528" lon="6.26911">
        <ele>1882</ele>
        <time>2021-06-19T09:54:42Z</time>
      </trkpt>
      <trkpt lat="45.6954" lon="6.26923">
        <ele>1878</ele>
        <time>2021-06-19T09:54:57Z</time>
      </trkpt>
      <trkpt lat="45.69544" lon="6.26931">
        <ele>1875</ele>
        <time>2021-06-19T09:55:05Z</time>
      </trkpt>
      <trkpt lat="45.69555" lon="6.26936">
        <ele>1874</ele>
        <time>2021-06-19T09:55:18Z</time>
      </trkpt>
      <trkpt lat="45.69562" lon="6.26939">
        <ele>1873</ele>
        <time>2021-06-19T09:55:48Z</time>
      </trkpt>
      <trkpt lat="45.69573" lon="6.26941">
        <ele>1873</ele>
        <time>2021-06-19T09:56:00Z</time>
      </trkpt>
      <trkpt lat="45.69578" lon="6.2694">
        <ele>1872</ele>
        <time>2021-06-19T09:56:04Z</time>
      </trkpt>
      <trkpt lat="45.69584" lon="6.26942">
        <ele>1872</ele>
        <time>2021-06-19T09:56:09Z</time>
      </trkpt>
      <trkpt lat="45.69588" lon="6.26932">
        <ele>1874</ele>
        <time>2021-06-19T09:56:22Z</time>
      </trkpt>
      <trkpt lat="45.69592" lon="6.26925">
        <ele>1875</ele>
        <time>2021-06-19T09:56:28Z</time>
      </trkpt>
      <trkpt lat="45.69595" lon="6.26919">
        <ele>1874</ele>
        <time>2021-06-19T09:56:33Z</time>
      </trkpt>
      <trkpt lat="45.69603" lon="6.26909">
        <ele>1877</ele>
        <time>2021-06-19T09:56:47Z</time>
      </trkpt>
      <trkpt lat="45.69609" lon="6.269">
        <ele>1880</ele>
        <time>2021-06-19T09:57:01Z</time>
      </trkpt>
      <trkpt lat="45.69616" lon="6.26893">
        <ele>1883</ele>
        <time>2021-06-19T09:57:19Z</time>
      </trkpt>
      <trkpt lat="45.69624" lon="6.26885">
        <ele>1884</ele>
        <time>2021-06-19T09:58:13Z</time>
      </trkpt>
      <trkpt lat="45.69617" lon="6.26898">
        <ele>1881</ele>
        <time>2021-06-19T10:00:44Z</time>
      </trkpt>
      <trkpt lat="45.69608" lon="6.26902">
        <ele>1879</ele>
        <time>2021-06-19T10:00:56Z</time>
      </trkpt>
      <trkpt lat="45.69604" lon="6.26909">
        <ele>1881</ele>
        <time>2021-06-19T10:01:04Z</time>
      </trkpt>
      <trkpt lat="45.69598" lon="6.26914">
        <ele>1877</ele>
        <time>2021-06-19T10:01:10Z</time>
      </trkpt>
      <trkpt lat="45.69597" lon="6.26921">
        <ele>1881</ele>
        <time>2021-06-19T10:01:14Z</time>
      </trkpt>
      <trkpt lat="45.6959" lon="6.26934">
        <ele>1877</ele>
        <time>2021-06-19T10:01:27Z</time>
      </trkpt>
      <trkpt lat="45.69586" lon="6.26937">
        <ele>1876</ele>
        <time>2021-06-19T10:01:32Z</time>
      </trkpt>
      <trkpt lat="45.69588" lon="6.26946">
        <ele>1875</ele>
        <time>2021-06-19T10:01:39Z</time>
      </trkpt>
      <trkpt lat="45.69593" lon="6.26951">
        <ele>1874</ele>
        <time>2021-06-19T10:01:45Z</time>
      </trkpt>
      <trkpt lat="45.696" lon="6.26955">
        <ele>1872</ele>
        <time>2021-06-19T10:01:52Z</time>
      </trkpt>
      <trkpt lat="45.69603" lon="6.26962">
        <ele>1872</ele>
        <time>2021-06-19T10:01:57Z</time>
      </trkpt>
      <trkpt lat="45.69609" lon="6.26978">
        <ele>1870</ele>
        <time>2021-06-19T10:02:09Z</time>
      </trkpt>
      <trkpt lat="45.69615" lon="6.26985">
        <ele>1869</ele>
        <time>2021-06-19T10:02:16Z</time>
      </trkpt>
      <trkpt lat="45.69617" lon="6.26996">
        <ele>1866</ele>
        <time>2021-06-19T10:02:28Z</time>
      </trkpt>
      <trkpt lat="45.69614" lon="6.27003">
        <ele>1864</ele>
        <time>2021-06-19T10:02:33Z</time>
      </trkpt>
      <trkpt lat="45.6961" lon="6.27007">
        <ele>1861</ele>
        <time>2021-06-19T10:02:38Z</time>
      </trkpt>
      <trkpt lat="45.69605" lon="6.27015">
        <ele>1858</ele>
        <time>2021-06-19T10:02:46Z</time>
      </trkpt>
      <trkpt lat="45.696" lon="6.27018">
        <ele>1856</ele>
        <time>2021-06-19T10:02:50Z</time>
      </trkpt>
      <trkpt lat="45.69595" lon="6.27026">
        <ele>1854</ele>
        <time>2021-06-19T10:02:59Z</time>
      </trkpt>
      <trkpt lat="45.69593" lon="6.27035">
        <ele>1859</ele>
        <time>2021-06-19T10:03:09Z</time>
      </trkpt>
      <trkpt lat="45.6959" lon="6.27042">
        <ele>1858</ele>
        <time>2021-06-19T10:03:15Z</time>
      </trkpt>
      <trkpt lat="45.69587" lon="6.27048">
        <ele>1857</ele>
        <time>2021-06-19T10:03:23Z</time>
      </trkpt>
      <trkpt lat="45.69585" lon="6.27057">
        <ele>1855</ele>
        <time>2021-06-19T10:03:29Z</time>
      </trkpt>
      <trkpt lat="45.69589" lon="6.27062">
        <ele>1856</ele>
        <time>2021-06-19T10:03:43Z</time>
      </trkpt>
      <trkpt lat="45.69593" lon="6.2707">
        <ele>1857</ele>
        <time>2021-06-19T10:03:55Z</time>
      </trkpt>
      <trkpt lat="45.69596" lon="6.2707">
        <ele>1860</ele>
        <time>2021-06-19T10:08:20Z</time>
      </trkpt>
      <trkpt lat="45.69599" lon="6.27074">
        <ele>1859</ele>
        <time>2021-06-19T10:09:32Z</time>
      </trkpt>
      <trkpt lat="45.69595" lon="6.27078">
        <ele>1860</ele>
        <time>2021-06-19T10:11:57Z</time>
      </trkpt>
      <trkpt lat="45.69596" lon="6.27066">
        <ele>1860</ele>
        <time>2021-06-19T10:12:38Z</time>
      </trkpt>
      <trkpt lat="45.696" lon="6.27062">
        <ele>1859</ele>
        <time>2021-06-19T10:17:47Z</time>
      </trkpt>
      <trkpt lat="45.69598" lon="6.27051">
        <ele>1858</ele>
        <time>2021-06-19T10:18:01Z</time>
      </trkpt>
      <trkpt lat="45.69594" lon="6.27042">
        <ele>1863</ele>
        <time>2021-06-19T10:18:19Z</time>
      </trkpt>
      <trkpt lat="45.69588" lon="6.27033">
        <ele>1865</ele>
        <time>2021-06-19T10:18:33Z</time>
      </trkpt>
      <trkpt lat="45.69573" lon="6.27016">
        <ele>1866</ele>
        <time>2021-06-19T10:19:14Z</time>
      </trkpt>
      <trkpt lat="45.6957" lon="6.26995">
        <ele>1868</ele>
        <time>2021-06-19T10:19:50Z</time>
      </trkpt>
      <trkpt lat="45.69576" lon="6.26977">
        <ele>1872</ele>
        <time>2021-06-19T10:20:05Z</time>
      </trkpt>
      <trkpt lat="45.69571" lon="6.26953">
        <ele>1874</ele>
        <time>2021-06-19T10:20:26Z</time>
      </trkpt>
      <trkpt lat="45.69586" lon="6.26928">
        <ele>1881</ele>
        <time>2021-06-19T10:21:21Z</time>
      </trkpt>
      <trkpt lat="45.69562" lon="6.26923">
        <ele>1884</ele>
        <time>2021-06-19T10:21:47Z</time>
      </trkpt>
      <trkpt lat="45.69534" lon="6.26909">
        <ele>1892</ele>
        <time>2021-06-19T10:22:21Z</time>
      </trkpt>
      <trkpt lat="45.69519" lon="6.2691">
        <ele>1898</ele>
        <time>2021-06-19T10:22:51Z</time>
      </trkpt>
      <trkpt lat="45.69504" lon="6.26898">
        <ele>1906</ele>
        <time>2021-06-19T10:23:21Z</time>
      </trkpt>
      <trkpt lat="45.69486" lon="6.26895">
        <ele>1908</ele>
        <time>2021-06-19T10:23:44Z</time>
      </trkpt>
      <trkpt lat="45.69471" lon="6.26887">
        <ele>1913</ele>
        <time>2021-06-19T10:24:08Z</time>
      </trkpt>
      <trkpt lat="45.69464" lon="6.26868">
        <ele>1920</ele>
        <time>2021-06-19T10:24:59Z</time>
      </trkpt>
      <trkpt lat="45.69458" lon="6.26848">
        <ele>1920</ele>
        <time>2021-06-19T10:25:11Z</time>
      </trkpt>
      <trkpt lat="45.69445" lon="6.2684">
        <ele>1920</ele>
        <time>2021-06-19T10:25:30Z</time>
      </trkpt>
      <trkpt lat="45.69457" lon="6.26825">
        <ele>1924</ele>
        <time>2021-06-19T10:27:59Z</time>
      </trkpt>
      <trkpt lat="45.69455" lon="6.26792">
        <ele>1935</ele>
        <time>2021-06-19T10:28:44Z</time>
      </trkpt>
      <trkpt lat="45.69452" lon="6.26762">
        <ele>1940</ele>
        <time>2021-06-19T10:29:11Z</time>
      </trkpt>
      <trkpt lat="45.69471" lon="6.26746">
        <ele>1945</ele>
        <time>2021-06-19T10:29:37Z</time>
      </trkpt>
      <trkpt lat="45.69481" lon="6.26731">
        <ele>1950</ele>
        <time>2021-06-19T10:30:04Z</time>
      </trkpt>
      <trkpt lat="45.69504" lon="6.26709">
        <ele>1960</ele>
        <time>2021-06-19T10:30:42Z</time>
      </trkpt>
      <trkpt lat="45.69514" lon="6.26696">
        <ele>1968</ele>
        <time>2021-06-19T10:31:19Z</time>
      </trkpt>
      <trkpt lat="45.69532" lon="6.26683">
        <ele>1968</ele>
        <time>2021-06-19T10:31:40Z</time>
      </trkpt>
      <trkpt lat="45.69537" lon="6.26663">
        <ele>1979</ele>
        <time>2021-06-19T10:32:19Z</time>
      </trkpt>
      <trkpt lat="45.69525" lon="6.26643">
        <ele>1992</ele>
        <time>2021-06-19T10:33:30Z</time>
      </trkpt>
      <trkpt lat="45.69537" lon="6.26631">
        <ele>1997</ele>
        <time>2021-06-19T10:33:59Z</time>
      </trkpt>
      <trkpt lat="45.69538" lon="6.26609">
        <ele>2002</ele>
        <time>2021-06-19T10:34:21Z</time>
      </trkpt>
      <trkpt lat="45.69524" lon="6.26602">
        <ele>2017</ele>
        <time>2021-06-19T10:35:46Z</time>
      </trkpt>
      <trkpt lat="45.69508" lon="6.26602">
        <ele>2026</ele>
        <time>2021-06-19T10:36:36Z</time>
      </trkpt>
      <trkpt lat="45.69495" lon="6.26579">
        <ele>2026</ele>
        <time>2021-06-19T10:37:10Z</time>
      </trkpt>
      <trkpt lat="45.69477" lon="6.26564">
        <ele>2031</ele>
        <time>2021-06-19T10:37:32Z</time>
      </trkpt>
      <trkpt lat="45.69467" lon="6.26545">
        <ele>2036</ele>
        <time>2021-06-19T10:37:57Z</time>
      </trkpt>
      <trkpt lat="45.69463" lon="6.26533">
        <ele>2038</ele>
        <time>2021-06-19T10:38:22Z</time>
      </trkpt>
      <trkpt lat="45.69449" lon="6.26524">
        <ele>2043</ele>
        <time>2021-06-19T10:38:39Z</time>
      </trkpt>
      <trkpt lat="45.6944" lon="6.26523">
        <ele>2045</ele>
        <time>2021-06-19T10:38:44Z</time>
      </trkpt>
      <trkpt lat="45.69418" lon="6.26511">
        <ele>2051</ele>
        <time>2021-06-19T10:39:14Z</time>
      </trkpt>
      <trkpt lat="45.69408" lon="6.26506">
        <ele>2055</ele>
        <time>2021-06-19T10:39:30Z</time>
      </trkpt>
      <trkpt lat="45.69401" lon="6.26502">
        <ele>2059</ele>
        <time>2021-06-19T10:39:55Z</time>
      </trkpt>
      <trkpt lat="45.69402" lon="6.26486">
        <ele>2061</ele>
        <time>2021-06-19T10:40:23Z</time>
      </trkpt>
      <trkpt lat="45.69399" lon="6.26475">
        <ele>2066</ele>
        <time>2021-06-19T10:40:44Z</time>
      </trkpt>
      <trkpt lat="45.6939" lon="6.26472">
        <ele>2069</ele>
        <time>2021-06-19T10:40:56Z</time>
      </trkpt>
      <trkpt lat="45.69384" lon="6.26474">
        <ele>2073</ele>
        <time>2021-06-19T10:41:22Z</time>
      </trkpt>
      <trkpt lat="45.69378" lon="6.26467">
        <ele>2075</ele>
        <time>2021-06-19T10:41:43Z</time>
      </trkpt>
      <trkpt lat="45.6938" lon="6.26454">
        <ele>2074</ele>
        <time>2021-06-19T10:41:54Z</time>
      </trkpt>
      <trkpt lat="45.69381" lon="6.26446">
        <ele>2075</ele>
        <time>2021-06-19T10:42:04Z</time>
      </trkpt>
      <trkpt lat="45.69376" lon="6.26435">
        <ele>2076</ele>
        <time>2021-06-19T10:42:39Z</time>
      </trkpt>
      <trkpt lat="45.69371" lon="6.26441">
        <ele>2076</ele>
        <time>2021-06-19T10:43:49Z</time>
      </trkpt>
      <trkpt lat="45.69368" lon="6.26449">
        <ele>2073</ele>
        <time>2021-06-19T10:44:05Z</time>
      </trkpt>
      <trkpt lat="45.69361" lon="6.26467">
        <ele>2074</ele>
        <time>2021-06-19T10:44:10Z</time>
      </trkpt>
      <trkpt lat="45.69359" lon="6.26478">
        <ele>2074</ele>
        <time>2021-06-19T10:44:13Z</time>
      </trkpt>
      <trkpt lat="45.69356" lon="6.26484">
        <ele>2074</ele>
        <time>2021-06-19T10:44:16Z</time>
      </trkpt>
      <trkpt lat="45.6935" lon="6.26505">
        <ele>2068</ele>
        <time>2021-06-19T10:44:24Z</time>
      </trkpt>
      <trkpt lat="45.69347" lon="6.26514">
        <ele>2068</ele>
        <time>2021-06-19T10:44:27Z</time>
      </trkpt>
      <trkpt lat="45.6934" lon="6.26517">
        <ele>2067</ele>
        <time>2021-06-19T10:44:30Z</time>
      </trkpt>
      <trkpt lat="45.69324" lon="6.26519">
        <ele>2070</ele>
        <time>2021-06-19T10:44:39Z</time>
      </trkpt>
      <trkpt lat="45.69317" lon="6.26524">
        <ele>2072</ele>
        <time>2021-06-19T10:44:43Z</time>
      </trkpt>
      <trkpt lat="45.6931" lon="6.26527">
        <ele>2074</ele>
        <time>2021-06-19T10:44:50Z</time>
      </trkpt>
      <trkpt lat="45.69307" lon="6.26534">
        <ele>2076</ele>
        <time>2021-06-19T10:44:56Z</time>
      </trkpt>
      <trkpt lat="45.69296" lon="6.26544">
        <ele>2083</ele>
        <time>2021-06-19T10:45:14Z</time>
      </trkpt>
      <trkpt lat="45.69291" lon="6.26545">
        <ele>2086</ele>
        <time>2021-06-19T10:45:24Z</time>
      </trkpt>
      <trkpt lat="45.69284" lon="6.26545">
        <ele>2086</ele>
        <time>2021-06-19T10:45:35Z</time>
      </trkpt>
      <trkpt lat="45.69285" lon="6.26559">
        <ele>2091</ele>
        <time>2021-06-19T10:45:56Z</time>
      </trkpt>
      <trkpt lat="45.6928" lon="6.26564">
        <ele>2094</ele>
        <time>2021-06-19T10:46:13Z</time>
      </trkpt>
      <trkpt lat="45.69272" lon="6.26564">
        <ele>2097</ele>
        <time>2021-06-19T10:46:24Z</time>
      </trkpt>
      <trkpt lat="45.69282" lon="6.26589">
        <ele>2103</ele>
        <time>2021-06-19T10:46:49Z</time>
      </trkpt>
      <trkpt lat="45.69281" lon="6.26599">
        <ele>2107</ele>
        <time>2021-06-19T10:47:10Z</time>
      </trkpt>
      <trkpt lat="45.69276" lon="6.26594">
        <ele>2108</ele>
        <time>2021-06-19T10:47:41Z</time>
      </trkpt>
      <trkpt lat="45.6927" lon="6.26593">
        <ele>2109</ele>
        <time>2021-06-19T10:47:47Z</time>
      </trkpt>
      <trkpt lat="45.69264" lon="6.26594">
        <ele>2109</ele>
        <time>2021-06-19T10:47:51Z</time>
      </trkpt>
      <trkpt lat="45.69256" lon="6.26592">
        <ele>2113</ele>
        <time>2021-06-19T10:48:08Z</time>
      </trkpt>
      <trkpt lat="45.69247" lon="6.26582">
        <ele>2117</ele>
        <time>2021-06-19T10:48:26Z</time>
      </trkpt>
      <trkpt lat="45.69241" lon="6.26577">
        <ele>2121</ele>
        <time>2021-06-19T10:48:44Z</time>
      </trkpt>
      <trkpt lat="45.69233" lon="6.26571">
        <ele>2125</ele>
        <time>2021-06-19T10:48:57Z</time>
      </trkpt>
      <trkpt lat="45.69224" lon="6.2657">
        <ele>2128</ele>
        <time>2021-06-19T10:49:15Z</time>
      </trkpt>
      <trkpt lat="45.69216" lon="6.26568">
        <ele>2131</ele>
        <time>2021-06-19T10:49:33Z</time>
      </trkpt>
      <trkpt lat="45.69205" lon="6.26548">
        <ele>2137</ele>
        <time>2021-06-19T10:50:03Z</time>
      </trkpt>
      <trkpt lat="45.69198" lon="6.26537">
        <ele>2139</ele>
        <time>2021-06-19T10:50:16Z</time>
      </trkpt>
      <trkpt lat="45.69189" lon="6.26541">
        <ele>2144</ele>
        <time>2021-06-19T10:50:41Z</time>
      </trkpt>
      <trkpt lat="45.6919" lon="6.26552">
        <ele>2148</ele>
        <time>2021-06-19T10:50:59Z</time>
      </trkpt>
      <trkpt lat="45.6918" lon="6.26546">
        <ele>2153</ele>
        <time>2021-06-19T10:51:18Z</time>
      </trkpt>
      <trkpt lat="45.69179" lon="6.26535">
        <ele>2155</ele>
        <time>2021-06-19T10:51:30Z</time>
      </trkpt>
      <trkpt lat="45.69172" lon="6.26528">
        <ele>2164</ele>
        <time>2021-06-19T10:52:06Z</time>
      </trkpt>
      <trkpt lat="45.69172" lon="6.26542">
        <ele>2170</ele>
        <time>2021-06-19T10:52:38Z</time>
      </trkpt>
      <trkpt lat="45.69162" lon="6.26536">
        <ele>2176</ele>
        <time>2021-06-19T10:53:08Z</time>
      </trkpt>
      <trkpt lat="45.69154" lon="6.26533">
        <ele>2179</ele>
        <time>2021-06-19T10:53:23Z</time>
      </trkpt>
      <trkpt lat="45.69158" lon="6.26532">
        <ele>2183</ele>
        <time>2021-06-19T10:54:35Z</time>
      </trkpt>
      <trkpt lat="45.69161" lon="6.2654">
        <ele>2186</ele>
        <time>2021-06-19T10:54:43Z</time>
      </trkpt>
      <trkpt lat="45.69163" lon="6.26539">
        <ele>2182</ele>
        <time>2021-06-19T10:57:01Z</time>
      </trkpt>
      <trkpt lat="45.69161" lon="6.2653">
        <ele>2181</ele>
        <time>2021-06-19T10:57:12Z</time>
      </trkpt>
      <trkpt lat="45.69156" lon="6.2652">
        <ele>2181</ele>
        <time>2021-06-19T10:57:16Z</time>
      </trkpt>
      <trkpt lat="45.69151" lon="6.26515">
        <ele>2182</ele>
        <time>2021-06-19T10:57:19Z</time>
      </trkpt>
      <trkpt lat="45.69157" lon="6.26512">
        <ele>2182</ele>
        <time>2021-06-19T10:58:27Z</time>
      </trkpt>
      <trkpt lat="45.69161" lon="6.2652">
        <ele>2181</ele>
        <time>2021-06-19T10:58:39Z</time>
      </trkpt>
      <trkpt lat="45.69163" lon="6.26528">
        <ele>2182</ele>
        <time>2021-06-19T10:58:45Z</time>
      </trkpt>
      <trkpt lat="45.69169" lon="6.26535">
        <ele>2173</ele>
        <time>2021-06-19T10:59:25Z</time>
      </trkpt>
      <trkpt lat="45.69176" lon="6.2654">
        <ele>2167</ele>
        <time>2021-06-19T10:59:43Z</time>
      </trkpt>
      <trkpt lat="45.69179" lon="6.26529">
        <ele>2164</ele>
        <time>2021-06-19T10:59:51Z</time>
      </trkpt>
      <trkpt lat="45.69184" lon="6.2652">
        <ele>2157</ele>
        <time>2021-06-19T11:00:21Z</time>
      </trkpt>
      <trkpt lat="45.69198" lon="6.26541">
        <ele>2149</ele>
        <time>2021-06-19T11:00:44Z</time>
      </trkpt>
      <trkpt lat="45.69203" lon="6.26529">
        <ele>2142</ele>
        <time>2021-06-19T11:01:08Z</time>
      </trkpt>
      <trkpt lat="45.69214" lon="6.26537">
        <ele>2137</ele>
        <time>2021-06-19T11:01:24Z</time>
      </trkpt>
      <trkpt lat="45.69221" lon="6.26552">
        <ele>2134</ele>
        <time>2021-06-19T11:01:32Z</time>
      </trkpt>
      <trkpt lat="45.69229" lon="6.26558">
        <ele>2132</ele>
        <time>2021-06-19T11:01:40Z</time>
      </trkpt>
      <trkpt lat="45.69237" lon="6.26567">
        <ele>2129</ele>
        <time>2021-06-19T11:01:54Z</time>
      </trkpt>
      <trkpt lat="45.69241" lon="6.26577">
        <ele>2128</ele>
        <time>2021-06-19T11:02:00Z</time>
      </trkpt>
      <trkpt lat="45.69243" lon="6.26588">
        <ele>2125</ele>
        <time>2021-06-19T11:02:08Z</time>
      </trkpt>
      <trkpt lat="45.69248" lon="6.2658">
        <ele>2120</ele>
        <time>2021-06-19T11:02:29Z</time>
      </trkpt>
      <trkpt lat="45.69262" lon="6.2659">
        <ele>2111</ele>
        <time>2021-06-19T11:02:59Z</time>
      </trkpt>
      <trkpt lat="45.6927" lon="6.26593">
        <ele>2108</ele>
        <time>2021-06-19T11:03:06Z</time>
      </trkpt>
      <trkpt lat="45.6928" lon="6.26601">
        <ele>2105</ele>
        <time>2021-06-19T11:04:21Z</time>
      </trkpt>
      <trkpt lat="45.69289" lon="6.26584">
        <ele>2102</ele>
        <time>2021-06-19T11:04:53Z</time>
      </trkpt>
      <trkpt lat="45.69291" lon="6.26576">
        <ele>2099</ele>
        <time>2021-06-19T11:04:57Z</time>
      </trkpt>
      <trkpt lat="45.69295" lon="6.26568">
        <ele>2096</ele>
        <time>2021-06-19T11:05:02Z</time>
      </trkpt>
      <trkpt lat="45.693" lon="6.26562">
        <ele>2092</ele>
        <time>2021-06-19T11:05:07Z</time>
      </trkpt>
      <trkpt lat="45.69322" lon="6.26519">
        <ele>2076</ele>
        <time>2021-06-19T11:05:31Z</time>
      </trkpt>
      <trkpt lat="45.69336" lon="6.2651">
        <ele>2070</ele>
        <time>2021-06-19T11:05:38Z</time>
      </trkpt>
      <trkpt lat="45.69355" lon="6.26505">
        <ele>2066</ele>
        <time>2021-06-19T11:05:45Z</time>
      </trkpt>
      <trkpt lat="45.69361" lon="6.26503">
        <ele>2066</ele>
        <time>2021-06-19T11:05:47Z</time>
      </trkpt>
      <trkpt lat="45.69368" lon="6.265">
        <ele>2066</ele>
        <time>2021-06-19T11:05:50Z</time>
      </trkpt>
      <trkpt lat="45.69374" lon="6.26499">
        <ele>2065</ele>
        <time>2021-06-19T11:05:52Z</time>
      </trkpt>
      <trkpt lat="45.69381" lon="6.26497">
        <ele>2064</ele>
        <time>2021-06-19T11:05:54Z</time>
      </trkpt>
      <trkpt lat="45.69386" lon="6.26499">
        <ele>2064</ele>
        <time>2021-06-19T11:05:56Z</time>
      </trkpt>
      <trkpt lat="45.69395" lon="6.26498">
        <ele>2063</ele>
        <time>2021-06-19T11:06:00Z</time>
      </trkpt>
      <trkpt lat="45.69403" lon="6.26502">
        <ele>2060</ele>
        <time>2021-06-19T11:06:11Z</time>
      </trkpt>
      <trkpt lat="45.69407" lon="6.26506">
        <ele>2058</ele>
        <time>2021-06-19T11:06:15Z</time>
      </trkpt>
      <trkpt lat="45.69413" lon="6.26508">
        <ele>2056</ele>
        <time>2021-06-19T11:06:19Z</time>
      </trkpt>
      <trkpt lat="45.69438" lon="6.26517">
        <ele>2048</ele>
        <time>2021-06-19T11:06:31Z</time>
      </trkpt>
      <trkpt lat="45.69458" lon="6.26527">
        <ele>2044</ele>
        <time>2021-06-19T11:06:42Z</time>
      </trkpt>
      <trkpt lat="45.6948" lon="6.26559">
        <ele>2032</ele>
        <time>2021-06-19T11:07:02Z</time>
      </trkpt>
      <trkpt lat="45.69483" lon="6.26568">
        <ele>2029</ele>
        <time>2021-06-19T11:07:07Z</time>
      </trkpt>
      <trkpt lat="45.69491" lon="6.2658">
        <ele>2025</ele>
        <time>2021-06-19T11:07:16Z</time>
      </trkpt>
      <trkpt lat="45.69496" lon="6.26584">
        <ele>2023</ele>
        <time>2021-06-19T11:07:20Z</time>
      </trkpt>
      <trkpt lat="45.69515" lon="6.26589">
        <ele>2016</ele>
        <time>2021-06-19T11:07:29Z</time>
      </trkpt>
      <trkpt lat="45.69522" lon="6.26593">
        <ele>2015</ele>
        <time>2021-06-19T11:07:32Z</time>
      </trkpt>
      <trkpt lat="45.69529" lon="6.26596">
        <ele>2013</ele>
        <time>2021-06-19T11:07:36Z</time>
      </trkpt>
      <trkpt lat="45.6954" lon="6.26602">
        <ele>2009</ele>
        <time>2021-06-19T11:07:43Z</time>
      </trkpt>
      <trkpt lat="45.69545" lon="6.26608">
        <ele>2007</ele>
        <time>2021-06-19T11:07:51Z</time>
      </trkpt>
      <trkpt lat="45.69542" lon="6.26616">
        <ele>2003</ele>
        <time>2021-06-19T11:08:03Z</time>
      </trkpt>
      <trkpt lat="45.69509" lon="6.26659">
        <ele>1990</ele>
        <time>2021-06-19T11:08:36Z</time>
      </trkpt>
      <trkpt lat="45.69513" lon="6.26667">
        <ele>1986</ele>
        <time>2021-06-19T11:08:42Z</time>
      </trkpt>
      <trkpt lat="45.69518" lon="6.26673">
        <ele>1985</ele>
        <time>2021-06-19T11:08:45Z</time>
      </trkpt>
      <trkpt lat="45.69526" lon="6.2667">
        <ele>1983</ele>
        <time>2021-06-19T11:08:48Z</time>
      </trkpt>
      <trkpt lat="45.69532" lon="6.26672">
        <ele>1982</ele>
        <time>2021-06-19T11:08:52Z</time>
      </trkpt>
      <trkpt lat="45.6954" lon="6.26684">
        <ele>1974</ele>
        <time>2021-06-19T11:09:05Z</time>
      </trkpt>
      <trkpt lat="45.69538" lon="6.26694">
        <ele>1970</ele>
        <time>2021-06-19T11:09:12Z</time>
      </trkpt>
      <trkpt lat="45.69534" lon="6.26701">
        <ele>1970</ele>
        <time>2021-06-19T11:09:14Z</time>
      </trkpt>
      <trkpt lat="45.69528" lon="6.26706">
        <ele>1971</ele>
        <time>2021-06-19T11:09:17Z</time>
      </trkpt>
      <trkpt lat="45.69523" lon="6.2671">
        <ele>1971</ele>
        <time>2021-06-19T11:09:19Z</time>
      </trkpt>
      <trkpt lat="45.69518" lon="6.26713">
        <ele>1970</ele>
        <time>2021-06-19T11:09:25Z</time>
      </trkpt>
      <trkpt lat="45.69512" lon="6.26715">
        <ele>1968</ele>
        <time>2021-06-19T11:09:29Z</time>
      </trkpt>
      <trkpt lat="45.69507" lon="6.26719">
        <ele>1966</ele>
        <time>2021-06-19T11:09:32Z</time>
      </trkpt>
      <trkpt lat="45.69498" lon="6.26731">
        <ele>1962</ele>
        <time>2021-06-19T11:09:43Z</time>
      </trkpt>
      <trkpt lat="45.69492" lon="6.26731">
        <ele>1961</ele>
        <time>2021-06-19T11:09:47Z</time>
      </trkpt>
      <trkpt lat="45.69484" lon="6.26734">
        <ele>1958</ele>
        <time>2021-06-19T11:09:55Z</time>
      </trkpt>
      <trkpt lat="45.69474" lon="6.26741">
        <ele>1953</ele>
        <time>2021-06-19T11:10:07Z</time>
      </trkpt>
      <trkpt lat="45.69467" lon="6.26743">
        <ele>1951</ele>
        <time>2021-06-19T11:10:11Z</time>
      </trkpt>
      <trkpt lat="45.69459" lon="6.26743">
        <ele>1948</ele>
        <time>2021-06-19T11:10:14Z</time>
      </trkpt>
      <trkpt lat="45.69452" lon="6.26746">
        <ele>1948</ele>
        <time>2021-06-19T11:10:16Z</time>
      </trkpt>
      <trkpt lat="45.69451" lon="6.26754">
        <ele>1946</ele>
        <time>2021-06-19T11:10:21Z</time>
      </trkpt>
      <trkpt lat="45.69454" lon="6.2676">
        <ele>1945</ele>
        <time>2021-06-19T11:10:25Z</time>
      </trkpt>
      <trkpt lat="45.69455" lon="6.2677">
        <ele>1944</ele>
        <time>2021-06-19T11:10:29Z</time>
      </trkpt>
      <trkpt lat="45.69454" lon="6.2678">
        <ele>1942</ele>
        <time>2021-06-19T11:10:32Z</time>
      </trkpt>
      <trkpt lat="45.69447" lon="6.26791">
        <ele>1940</ele>
        <time>2021-06-19T11:10:37Z</time>
      </trkpt>
      <trkpt lat="45.69447" lon="6.26799">
        <ele>1939</ele>
        <time>2021-06-19T11:10:40Z</time>
      </trkpt>
      <trkpt lat="45.69449" lon="6.26808">
        <ele>1937</ele>
        <time>2021-06-19T11:10:43Z</time>
      </trkpt>
      <trkpt lat="45.69454" lon="6.26813">
        <ele>1935</ele>
        <time>2021-06-19T11:10:48Z</time>
      </trkpt>
      <trkpt lat="45.69454" lon="6.26822">
        <ele>1933</ele>
        <time>2021-06-19T11:10:53Z</time>
      </trkpt>
      <trkpt lat="45.69446" lon="6.2684">
        <ele>1928</ele>
        <time>2021-06-19T11:11:06Z</time>
      </trkpt>
      <trkpt lat="45.69446" lon="6.26849">
        <ele>1925</ele>
        <time>2021-06-19T11:11:10Z</time>
      </trkpt>
      <trkpt lat="45.6946" lon="6.26873">
        <ele>1920</ele>
        <time>2021-06-19T11:11:22Z</time>
      </trkpt>
      <trkpt lat="45.6948" lon="6.26891">
        <ele>1912</ele>
        <time>2021-06-19T11:11:36Z</time>
      </trkpt>
      <trkpt lat="45.69488" lon="6.26887">
        <ele>1910</ele>
        <time>2021-06-19T11:11:39Z</time>
      </trkpt>
      <trkpt lat="45.69493" lon="6.26886">
        <ele>1909</ele>
        <time>2021-06-19T11:11:42Z</time>
      </trkpt>
      <trkpt lat="45.69512" lon="6.26895">
        <ele>1902</ele>
        <time>2021-06-19T11:11:53Z</time>
      </trkpt>
      <trkpt lat="45.69517" lon="6.26902">
        <ele>1900</ele>
        <time>2021-06-19T11:11:58Z</time>
      </trkpt>
      <trkpt lat="45.69524" lon="6.26904">
        <ele>1897</ele>
        <time>2021-06-19T11:12:03Z</time>
      </trkpt>
      <trkpt lat="45.6953" lon="6.26906">
        <ele>1894</ele>
        <time>2021-06-19T11:12:08Z</time>
      </trkpt>
      <trkpt lat="45.69535" lon="6.26911">
        <ele>1892</ele>
        <time>2021-06-19T11:12:12Z</time>
      </trkpt>
      <trkpt lat="45.69539" lon="6.26919">
        <ele>1890</ele>
        <time>2021-06-19T11:12:17Z</time>
      </trkpt>
      <trkpt lat="45.69544" lon="6.26923">
        <ele>1888</ele>
        <time>2021-06-19T11:12:21Z</time>
      </trkpt>
      <trkpt lat="45.69554" lon="6.26931">
        <ele>1886</ele>
        <time>2021-06-19T11:12:27Z</time>
      </trkpt>
      <trkpt lat="45.69561" lon="6.26933">
        <ele>1885</ele>
        <time>2021-06-19T11:12:30Z</time>
      </trkpt>
      <trkpt lat="45.69569" lon="6.26935">
        <ele>1885</ele>
        <time>2021-06-19T11:12:33Z</time>
      </trkpt>
      <trkpt lat="45.69576" lon="6.26938">
        <ele>1885</ele>
        <time>2021-06-19T11:12:36Z</time>
      </trkpt>
      <trkpt lat="45.69581" lon="6.26943">
        <ele>1884</ele>
        <time>2021-06-19T11:12:40Z</time>
      </trkpt>
      <trkpt lat="45.69588" lon="6.26943">
        <ele>1883</ele>
        <time>2021-06-19T11:12:43Z</time>
      </trkpt>
      <trkpt lat="45.69593" lon="6.26946">
        <ele>1883</ele>
        <time>2021-06-19T11:12:46Z</time>
      </trkpt>
      <trkpt lat="45.69599" lon="6.26949">
        <ele>1882</ele>
        <time>2021-06-19T11:12:48Z</time>
      </trkpt>
      <trkpt lat="45.69605" lon="6.26952">
        <ele>1880</ele>
        <time>2021-06-19T11:12:50Z</time>
      </trkpt>
      <trkpt lat="45.69607" lon="6.2696">
        <ele>1879</ele>
        <time>2021-06-19T11:12:52Z</time>
      </trkpt>
      <trkpt lat="45.6961" lon="6.2697">
        <ele>1880</ele>
        <time>2021-06-19T11:12:55Z</time>
      </trkpt>
      <trkpt lat="45.69612" lon="6.26982">
        <ele>1878</ele>
        <time>2021-06-19T11:13:01Z</time>
      </trkpt>
      <trkpt lat="45.69619" lon="6.26993">
        <ele>1875</ele>
        <time>2021-06-19T11:13:15Z</time>
      </trkpt>
      <trkpt lat="45.6961" lon="6.27006">
        <ele>1869</ele>
        <time>2021-06-19T11:13:26Z</time>
      </trkpt>
      <trkpt lat="45.696" lon="6.27016">
        <ele>1865</ele>
        <time>2021-06-19T11:13:34Z</time>
      </trkpt>
      <trkpt lat="45.69601" lon="6.27023">
        <ele>1862</ele>
        <time>2021-06-19T11:13:38Z</time>
      </trkpt>
      <trkpt lat="45.69603" lon="6.27034">
        <ele>1860</ele>
        <time>2021-06-19T11:13:44Z</time>
      </trkpt>
      <trkpt lat="45.69601" lon="6.27046">
        <ele>1863</ele>
        <time>2021-06-19T11:13:53Z</time>
      </trkpt>
      <trkpt lat="45.69599" lon="6.27057">
        <ele>1862</ele>
        <time>2021-06-19T11:14:06Z</time>
      </trkpt>
      <trkpt lat="45.69594" lon="6.27065">
        <ele>1863</ele>
        <time>2021-06-19T11:14:12Z</time>
      </trkpt>
      <trkpt lat="45.69648" lon="6.27057">
        <ele>1854</ele>
        <time>2021-06-19T11:18:23Z</time>
      </trkpt>
      <trkpt lat="45.69664" lon="6.27054">
        <ele>1853</ele>
        <time>2021-06-19T11:18:39Z</time>
      </trkpt>
      <trkpt lat="45.69678" lon="6.27063">
        <ele>1851</ele>
        <time>2021-06-19T11:18:51Z</time>
      </trkpt>
      <trkpt lat="45.69698" lon="6.27088">
        <ele>1844</ele>
        <time>2021-06-19T11:19:15Z</time>
      </trkpt>
      <trkpt lat="45.69703" lon="6.27092">
        <ele>1843</ele>
        <time>2021-06-19T11:19:19Z</time>
      </trkpt>
      <trkpt lat="45.69708" lon="6.27096">
        <ele>1842</ele>
        <time>2021-06-19T11:19:25Z</time>
      </trkpt>
      <trkpt lat="45.69714" lon="6.27108">
        <ele>1839</ele>
        <time>2021-06-19T11:19:35Z</time>
      </trkpt>
      <trkpt lat="45.69726" lon="6.27122">
        <ele>1834</ele>
        <time>2021-06-19T11:19:53Z</time>
      </trkpt>
      <trkpt lat="45.69733" lon="6.27129">
        <ele>1834</ele>
        <time>2021-06-19T11:20:00Z</time>
      </trkpt>
      <trkpt lat="45.69738" lon="6.27136">
        <ele>1833</ele>
        <time>2021-06-19T11:20:06Z</time>
      </trkpt>
      <trkpt lat="45.6974" lon="6.27143">
        <ele>1831</ele>
        <time>2021-06-19T11:20:10Z</time>
      </trkpt>
      <trkpt lat="45.69745" lon="6.27147">
        <ele>1831</ele>
        <time>2021-06-19T11:20:15Z</time>
      </trkpt>
      <trkpt lat="45.6975" lon="6.27154">
        <ele>1831</ele>
        <time>2021-06-19T11:20:21Z</time>
      </trkpt>
      <trkpt lat="45.69758" lon="6.27151">
        <ele>1832</ele>
        <time>2021-06-19T11:21:03Z</time>
      </trkpt>
      <trkpt lat="45.69763" lon="6.27148">
        <ele>1833</ele>
        <time>2021-06-19T11:21:08Z</time>
      </trkpt>
      <trkpt lat="45.69769" lon="6.2715">
        <ele>1834</ele>
        <time>2021-06-19T11:21:13Z</time>
      </trkpt>
      <trkpt lat="45.69775" lon="6.27148">
        <ele>1834</ele>
        <time>2021-06-19T11:21:18Z</time>
      </trkpt>
      <trkpt lat="45.69782" lon="6.27147">
        <ele>1833</ele>
        <time>2021-06-19T11:21:23Z</time>
      </trkpt>
      <trkpt lat="45.69789" lon="6.27148">
        <ele>1832</ele>
        <time>2021-06-19T11:21:28Z</time>
      </trkpt>
      <trkpt lat="45.69794" lon="6.2715">
        <ele>1833</ele>
        <time>2021-06-19T11:21:32Z</time>
      </trkpt>
      <trkpt lat="45.69801" lon="6.27152">
        <ele>1834</ele>
        <time>2021-06-19T11:21:37Z</time>
      </trkpt>
      <trkpt lat="45.69802" lon="6.2716">
        <ele>1835</ele>
        <time>2021-06-19T11:21:44Z</time>
      </trkpt>
      <trkpt lat="45.69807" lon="6.27185">
        <ele>1834</ele>
        <time>2021-06-19T11:22:06Z</time>
      </trkpt>
      <trkpt lat="45.69811" lon="6.27192">
        <ele>1833</ele>
        <time>2021-06-19T11:22:10Z</time>
      </trkpt>
      <trkpt lat="45.69816" lon="6.27201">
        <ele>1834</ele>
        <time>2021-06-19T11:22:15Z</time>
      </trkpt>
      <trkpt lat="45.69823" lon="6.27202">
        <ele>1833</ele>
        <time>2021-06-19T11:22:20Z</time>
      </trkpt>
      <trkpt lat="45.69832" lon="6.27207">
        <ele>1834</ele>
        <time>2021-06-19T11:22:33Z</time>
      </trkpt>
      <trkpt lat="45.69839" lon="6.27205">
        <ele>1834</ele>
        <time>2021-06-19T11:22:42Z</time>
      </trkpt>
      <trkpt lat="45.69839" lon="6.27215">
        <ele>1834</ele>
        <time>2021-06-19T11:22:50Z</time>
      </trkpt>
      <trkpt lat="45.69842" lon="6.27222">
        <ele>1834</ele>
        <time>2021-06-19T11:22:54Z</time>
      </trkpt>
      <trkpt lat="45.69849" lon="6.27237">
        <ele>1835</ele>
        <time>2021-06-19T11:23:06Z</time>
      </trkpt>
      <trkpt lat="45.69853" lon="6.27245">
        <ele>1835</ele>
        <time>2021-06-19T11:23:11Z</time>
      </trkpt>
      <trkpt lat="45.69845" lon="6.27242">
        <ele>1835</ele>
        <time>2021-06-19T11:23:39Z</time>
      </trkpt>
      <trkpt lat="45.69842" lon="6.27234">
        <ele>1834</ele>
        <time>2021-06-19T11:23:44Z</time>
      </trkpt>
      <trkpt lat="45.69838" lon="6.27229">
        <ele>1834</ele>
        <time>2021-06-19T11:23:47Z</time>
      </trkpt>
      <trkpt lat="45.69833" lon="6.27224">
        <ele>1834</ele>
        <time>2021-06-19T11:23:52Z</time>
      </trkpt>
      <trkpt lat="45.69829" lon="6.27225">
        <ele>1833</ele>
        <time>2021-06-19T11:23:55Z</time>
      </trkpt>
      <trkpt lat="45.69819" lon="6.27219">
        <ele>1833</ele>
        <time>2021-06-19T11:24:04Z</time>
      </trkpt>
      <trkpt lat="45.69811" lon="6.27211">
        <ele>1833</ele>
        <time>2021-06-19T11:24:11Z</time>
      </trkpt>
      <trkpt lat="45.69807" lon="6.27203">
        <ele>1832</ele>
        <time>2021-06-19T11:24:16Z</time>
      </trkpt>
      <trkpt lat="45.69803" lon="6.27196">
        <ele>1832</ele>
        <time>2021-06-19T11:24:20Z</time>
      </trkpt>
      <trkpt lat="45.69802" lon="6.27188">
        <ele>1831</ele>
        <time>2021-06-19T11:24:24Z</time>
      </trkpt>
      <trkpt lat="45.69802" lon="6.27179">
        <ele>1833</ele>
        <time>2021-06-19T11:24:29Z</time>
      </trkpt>
      <trkpt lat="45.69802" lon="6.27166">
        <ele>1832</ele>
        <time>2021-06-19T11:24:39Z</time>
      </trkpt>
      <trkpt lat="45.69799" lon="6.27159">
        <ele>1832</ele>
        <time>2021-06-19T11:24:44Z</time>
      </trkpt>
      <trkpt lat="45.69794" lon="6.27155">
        <ele>1831</ele>
        <time>2021-06-19T11:24:48Z</time>
      </trkpt>
      <trkpt lat="45.69787" lon="6.27156">
        <ele>1832</ele>
        <time>2021-06-19T11:24:52Z</time>
      </trkpt>
      <trkpt lat="45.69783" lon="6.27156">
        <ele>1832</ele>
        <time>2021-06-19T11:24:55Z</time>
      </trkpt>
      <trkpt lat="45.69777" lon="6.27157">
        <ele>1832</ele>
        <time>2021-06-19T11:25:04Z</time>
      </trkpt>
      <trkpt lat="45.69768" lon="6.27157">
        <ele>1831</ele>
        <time>2021-06-19T11:25:20Z</time>
      </trkpt>
      <trkpt lat="45.69756" lon="6.27155">
        <ele>1830</ele>
        <time>2021-06-19T11:25:28Z</time>
      </trkpt>
      <trkpt lat="45.6975" lon="6.27157">
        <ele>1829</ele>
        <time>2021-06-19T11:25:33Z</time>
      </trkpt>
      <trkpt lat="45.6975" lon="6.27156">
        <ele>1827</ele>
        <time>2021-06-19T11:27:04Z</time>
      </trkpt>
      <trkpt lat="45.69748" lon="6.27157">
        <ele>1825</ele>
        <time>2021-06-19T11:32:55Z</time>
      </trkpt>
      <trkpt lat="45.69742" lon="6.27161">
        <ele>1823</ele>
        <time>2021-06-19T11:34:21Z</time>
      </trkpt>
      <trkpt lat="45.69733" lon="6.27168">
        <ele>1820</ele>
        <time>2021-06-19T11:34:27Z</time>
      </trkpt>
      <trkpt lat="45.6973" lon="6.27176">
        <ele>1819</ele>
        <time>2021-06-19T11:34:33Z</time>
      </trkpt>
      <trkpt lat="45.69733" lon="6.27185">
        <ele>1816</ele>
        <time>2021-06-19T11:34:40Z</time>
      </trkpt>
      <trkpt lat="45.69734" lon="6.27195">
        <ele>1814</ele>
        <time>2021-06-19T11:34:45Z</time>
      </trkpt>
      <trkpt lat="45.69731" lon="6.27203">
        <ele>1812</ele>
        <time>2021-06-19T11:34:49Z</time>
      </trkpt>
      <trkpt lat="45.6972" lon="6.27211">
        <ele>1811</ele>
        <time>2021-06-19T11:34:54Z</time>
      </trkpt>
      <trkpt lat="45.69716" lon="6.27215">
        <ele>1811</ele>
        <time>2021-06-19T11:34:57Z</time>
      </trkpt>
      <trkpt lat="45.69711" lon="6.2722">
        <ele>1810</ele>
        <time>2021-06-19T11:35:01Z</time>
      </trkpt>
      <trkpt lat="45.69698" lon="6.2723">
        <ele>1808</ele>
        <time>2021-06-19T11:35:09Z</time>
      </trkpt>
      <trkpt lat="45.69691" lon="6.27231">
        <ele>1807</ele>
        <time>2021-06-19T11:35:13Z</time>
      </trkpt>
      <trkpt lat="45.69686" lon="6.27235">
        <ele>1806</ele>
        <time>2021-06-19T11:35:17Z</time>
      </trkpt>
      <trkpt lat="45.6968" lon="6.27242">
        <ele>1805</ele>
        <time>2021-06-19T11:35:21Z</time>
      </trkpt>
      <trkpt lat="45.69677" lon="6.27248">
        <ele>1804</ele>
        <time>2021-06-19T11:35:25Z</time>
      </trkpt>
      <trkpt lat="45.69675" lon="6.27257">
        <ele>1804</ele>
        <time>2021-06-19T11:35:29Z</time>
      </trkpt>
      <trkpt lat="45.69675" lon="6.27264">
        <ele>1802</ele>
        <time>2021-06-19T11:35:33Z</time>
      </trkpt>
      <trkpt lat="45.69678" lon="6.27299">
        <ele>1795</ele>
        <time>2021-06-19T11:35:49Z</time>
      </trkpt>
      <trkpt lat="45.69677" lon="6.27306">
        <ele>1794</ele>
        <time>2021-06-19T11:35:53Z</time>
      </trkpt>
      <trkpt lat="45.69672" lon="6.27319">
        <ele>1791</ele>
        <time>2021-06-19T11:36:03Z</time>
      </trkpt>
      <trkpt lat="45.69669" lon="6.27327">
        <ele>1790</ele>
        <time>2021-06-19T11:36:06Z</time>
      </trkpt>
      <trkpt lat="45.69664" lon="6.27334">
        <ele>1789</ele>
        <time>2021-06-19T11:36:10Z</time>
      </trkpt>
      <trkpt lat="45.69662" lon="6.27342">
        <ele>1788</ele>
        <time>2021-06-19T11:36:14Z</time>
      </trkpt>
      <trkpt lat="45.69665" lon="6.27349">
        <ele>1786</ele>
        <time>2021-06-19T11:36:18Z</time>
      </trkpt>
      <trkpt lat="45.69685" lon="6.27348">
        <ele>1783</ele>
        <time>2021-06-19T11:36:30Z</time>
      </trkpt>
      <trkpt lat="45.69692" lon="6.27353">
        <ele>1783</ele>
        <time>2021-06-19T11:36:34Z</time>
      </trkpt>
      <trkpt lat="45.69696" lon="6.27358">
        <ele>1782</ele>
        <time>2021-06-19T11:36:38Z</time>
      </trkpt>
      <trkpt lat="45.69696" lon="6.27367">
        <ele>1780</ele>
        <time>2021-06-19T11:36:44Z</time>
      </trkpt>
      <trkpt lat="45.6969" lon="6.2737">
        <ele>1779</ele>
        <time>2021-06-19T11:36:47Z</time>
      </trkpt>
      <trkpt lat="45.69685" lon="6.27374">
        <ele>1777</ele>
        <time>2021-06-19T11:36:51Z</time>
      </trkpt>
      <trkpt lat="45.69682" lon="6.27382">
        <ele>1775</ele>
        <time>2021-06-19T11:36:54Z</time>
      </trkpt>
      <trkpt lat="45.69681" lon="6.27397">
        <ele>1773</ele>
        <time>2021-06-19T11:37:00Z</time>
      </trkpt>
      <trkpt lat="45.69683" lon="6.27407">
        <ele>1772</ele>
        <time>2021-06-19T11:37:04Z</time>
      </trkpt>
      <trkpt lat="45.69687" lon="6.27415">
        <ele>1772</ele>
        <time>2021-06-19T11:37:08Z</time>
      </trkpt>
      <trkpt lat="45.69695" lon="6.27439">
        <ele>1770</ele>
        <time>2021-06-19T11:37:22Z</time>
      </trkpt>
      <trkpt lat="45.69701" lon="6.27448">
        <ele>1771</ele>
        <time>2021-06-19T11:37:30Z</time>
      </trkpt>
      <trkpt lat="45.69702" lon="6.27456">
        <ele>1771</ele>
        <time>2021-06-19T11:37:42Z</time>
      </trkpt>
      <trkpt lat="45.69702" lon="6.27453">
        <ele>1769</ele>
        <time>2021-06-19T11:39:36Z</time>
      </trkpt>
      <trkpt lat="45.6971" lon="6.27453">
        <ele>1768</ele>
        <time>2021-06-19T12:56:51Z</time>
      </trkpt>
      <trkpt lat="45.69712" lon="6.27449">
        <ele>1771</ele>
        <time>2021-06-19T12:56:53Z</time>
      </trkpt>
      <trkpt lat="45.69405" lon="6.28157">
        <ele>1712</ele>
        <time>2021-06-19T13:31:00Z</time>
      </trkpt>
      <trkpt lat="45.69405" lon="6.28157">
        <ele>1712</ele>
        <time>2021-06-19T13:31:01Z</time>
      </trkpt>
      <trkpt lat="45.69401" lon="6.28168">
        <ele>1711</ele>
        <time>2021-06-19T13:31:30Z</time>
      </trkpt>
      <trkpt lat="45.69396" lon="6.28194">
        <ele>1706</ele>
        <time>2021-06-19T13:32:48Z</time>
      </trkpt>
      <trkpt lat="45.69393" lon="6.2821">
        <ele>1705</ele>
        <time>2021-06-19T13:33:08Z</time>
      </trkpt>
      <trkpt lat="45.69288" lon="6.27962">
        <ele>1656.8</ele>
        <time>2021-06-19T13:41:19Z</time>
      </trkpt>
      <trkpt lat="45.67944" lon="6.27429">
        <ele>1641</ele>
        <time>2021-06-19T14:27:57Z</time>
      </trkpt>
      <trkpt lat="45.67945" lon="6.27429">
        <ele>1641</ele>
        <time>2021-06-19T14:27:58Z</time>
      </trkpt>
      <trkpt lat="45.51197" lon="6.00501">
        <ele>296</ele>
        <time>2021-06-20T12:01:34Z</time>
      </trkpt>
      <trkpt lat="45.51197" lon="6.00501">
        <ele>296</ele>
        <time>2021-06-20T12:01:42Z</time>
      </trkpt>
      <trkpt lat="45.51466" lon="5.9983">
        <ele>295</ele>
        <time>2021-06-20T12:02:13Z</time>
      </trkpt>
      <trkpt lat="45.51535" lon="5.99618">
        <ele>296</ele>
        <time>2021-06-20T12:02:20Z</time>
      </trkpt>
      <trkpt lat="45.51565" lon="5.99489">
        <ele>298</ele>
        <time>2021-06-20T12:02:25Z</time>
      </trkpt>
    </trkseg>
  </trk>
  <rte>
    <name><![CDATA[4 avr. 2019 à 23:11:12]]></name>
    <cmt><![CDATA[4 avr. 2019 à 23:11:12]]></cmt>
    <desc><![CDATA[{DC1}Heure de fin	: 
Durée totale	: 0h00:00
Moyenne globale	: -
Pente moyenne	: 0.00 %
Aire incluse	: 7.4932 ha
Détails par segments
distance  | durée    | vit.moy. | vit.max. | déniv. + | déniv -
   km     | hh:mn:ss |   km/h   |   km/h   |    m     |    m
     0.81 | 00:00:00 |      0.0 |      0.0 |        0 |        0{DC2}]]></desc>
      <rtept lat="45.60077" lon="6.18221">
        <ele>1608.6</ele>
      </rtept>
      <rtept lat="45.59468" lon="6.1822">
        <ele>1760.9</ele>
      </rtept>
      <rtept lat="45.59468" lon="6.1822">
        <ele>1760.9</ele>
      </rtept>
    </rte>
  <rte>
    <name><![CDATA[10 févr. 2019 à 15:16:12]]></name>
    <cmt><![CDATA[10 févr. 2019 à 15:16:12]]></cmt>
    <desc><![CDATA[{DC1}Heure de fin	: 00:09:21
Durée totale	: -17690439h43:48
Moyenne globale	: -
Pente moyenne	: 7.00 %
Aire incluse	: 221.0936 ha
Détails par segments
distance  | durée    | vit.moy. | vit.max. | déniv. + | déniv -
   km     | hh:mn:ss |   km/h   |   km/h   |    m     |    m
     7.48 | 00:00:00 |      0.0 |      0.0 |        0 |        0{DC2}]]></desc>
      <rtept lat="45.55203" lon="5.93805">
        <ele>376</ele>
      </rtept>
      <rtept lat="45.55177" lon="5.93873">
        <ele>369</ele>
      </rtept>
      <rtept lat="45.55176" lon="5.93942">
        <ele>367</ele>
      </rtept>
      <rtept lat="45.55105" lon="5.93942">
        <ele>367</ele>
      </rtept>
      <rtept lat="45.54993" lon="5.93908">
        <ele>371</ele>
      </rtept>
      <rtept lat="45.54929" lon="5.94099">
        <ele>370</ele>
      </rtept>
      <rtept lat="45.54908" lon="5.94204">
        <ele>367</ele>
      </rtept>
      <rtept lat="45.54991" lon="5.94287">
        <ele>365</ele>
      </rtept>
      <rtept lat="45.5506" lon="5.94384">
        <ele>361</ele>
      </rtept>
      <rtept lat="45.55147" lon="5.94384">
        <ele>357</ele>
      </rtept>
      <rtept lat="45.55129" lon="5.94607">
        <ele>358</ele>
      </rtept>
      <rtept lat="45.55029" lon="5.94809">
        <ele>355</ele>
      </rtept>
      <rtept lat="45.54884" lon="5.94886">
        <ele>346</ele>
      </rtept>
      <rtept lat="45.5477" lon="5.94931">
        <ele>342</ele>
      </rtept>
      <rtept lat="45.5468" lon="5.95004">
        <ele>339</ele>
      </rtept>
      <rtept lat="45.54596" lon="5.95133">
        <ele>340</ele>
      </rtept>
      <rtept lat="45.54446" lon="5.95195">
        <ele>343</ele>
      </rtept>
      <rtept lat="45.543" lon="5.95262">
        <ele>344</ele>
      </rtept>
      <rtept lat="45.54156" lon="5.95212">
        <ele>337</ele>
      </rtept>
      <rtept lat="45.54041" lon="5.95204">
        <ele>338</ele>
      </rtept>
      <rtept lat="45.53917" lon="5.95141">
        <ele>343</ele>
      </rtept>
      <rtept lat="45.53844" lon="5.95135">
        <ele>347</ele>
      </rtept>
      <rtept lat="45.53765" lon="5.9503">
        <ele>349</ele>
      </rtept>
      <rtept lat="45.5381" lon="5.94993">
        <ele>352</ele>
      </rtept>
      <rtept lat="45.53781" lon="5.94901">
        <ele>358</ele>
      </rtept>
      <rtept lat="45.53711" lon="5.94845">
        <ele>365</ele>
      </rtept>
      <rtept lat="45.53702" lon="5.94764">
        <ele>369</ele>
      </rtept>
      <rtept lat="45.53817" lon="5.94807">
        <ele>376</ele>
      </rtept>
      <rtept lat="45.53865" lon="5.94633">
        <ele>389</ele>
      </rtept>
      <rtept lat="45.53778" lon="5.94491">
        <ele>408</ele>
      </rtept>
      <rtept lat="45.53757" lon="5.94371">
        <ele>425</ele>
      </rtept>
      <rtept lat="45.53775" lon="5.94279">
        <ele>434</ele>
      </rtept>
      <rtept lat="45.53726" lon="5.94227">
        <ele>442</ele>
      </rtept>
      <rtept lat="45.53572" lon="5.94146">
        <ele>468</ele>
      </rtept>
      <rtept lat="45.53664" lon="5.94039">
        <ele>483</ele>
      </rtept>
      <rtept lat="45.53532" lon="5.93983">
        <ele>505</ele>
      </rtept>
      <rtept lat="45.53416" lon="5.93985">
        <ele>516</ele>
      </rtept>
      <rtept lat="45.5355" lon="5.93869">
        <ele>532</ele>
      </rtept>
      <rtept lat="45.5359" lon="5.93845">
        <ele>537</ele>
      </rtept>
      <rtept lat="45.5355" lon="5.93802">
        <ele>544</ele>
      </rtept>
      <rtept lat="45.53724" lon="5.93554">
        <ele>587</ele>
      </rtept>
      <rtept lat="45.53691" lon="5.93339">
        <ele>592</ele>
      </rtept>
      <rtept lat="45.5376" lon="5.93178">
        <ele>575</ele>
      </rtept>
      <rtept lat="45.53843" lon="5.93069">
        <ele>555</ele>
      </rtept>
      <rtept lat="45.53939" lon="5.93157">
        <ele>541</ele>
      </rtept>
      <rtept lat="45.54068" lon="5.93234">
        <ele>522</ele>
      </rtept>
      <rtept lat="45.54219" lon="5.93247">
        <ele>514</ele>
      </rtept>
      <rtept lat="45.54355" lon="5.93232">
        <ele>512</ele>
      </rtept>
      <rtept lat="45.54489" lon="5.9326">
        <ele>508</ele>
      </rtept>
      <rtept lat="45.54636" lon="5.93249">
        <ele>510</ele>
      </rtept>
      <rtept lat="45.54758" lon="5.93249">
        <ele>510</ele>
      </rtept>
      <rtept lat="45.54818" lon="5.93298">
        <ele>507</ele>
      </rtept>
      <rtept lat="45.54796" lon="5.93418">
        <ele>496</ele>
      </rtept>
      <rtept lat="45.5491" lon="5.93433">
        <ele>483</ele>
      </rtept>
      <rtept lat="45.55126" lon="5.9341">
        <ele>463</ele>
      </rtept>
      <rtept lat="45.55256" lon="5.93453">
        <ele>444</ele>
      </rtept>
      <rtept lat="45.55329" lon="5.93558">
        <ele>430</ele>
      </rtept>
      <rtept lat="45.55222" lon="5.93642">
        <ele>415</ele>
      </rtept>
      <rtept lat="45.55195" lon="5.93811">
        <ele>375</ele>
      </rtept>
    </rte>
  <rte>
    <name><![CDATA[10 févr. 2019 à 15:15:48]]></name>
    <cmt><![CDATA[10 févr. 2019 à 15:15:48]]></cmt>
    <desc><![CDATA[{DC1}Heure de fin	: 00:09:21
Durée totale	: -17690439h44:12
Moyenne globale	: -
Pente moyenne	: nan %
Aire incluse	: 0.0000 ha
Détails par segments
distance  | durée    | vit.moy. | vit.max. | déniv. + | déniv -
   km     | hh:mn:ss |   km/h   |   km/h   |    m     |    m
     0.00 | 00:00:00 |      0.0 |      0.0 |        0 |        0{DC2}]]></desc>
      <rtept lat="45.5175" lon="5.93483">
        <ele>732.3</ele>
      </rtept>
    </rte>
  <rte>
    <name><![CDATA[10 févr. 2019 à 15:06:08]]></name>
    <cmt><![CDATA[10 févr. 2019 à 15:06:08]]></cmt>
    <desc><![CDATA[{DC1}Heure de fin	: 
Durée totale	: 0h00:00
Moyenne globale	: -
Pente moyenne	: 8.03 %
Aire incluse	: 204.0794 ha
Détails par segments
distance  | durée    | vit.moy. | vit.max. | déniv. + | déniv -
   km     | hh:mn:ss |   km/h   |   km/h   |    m     |    m
    12.88 | 00:00:00 |      0.0 |      0.0 |        0 |        0{DC2}]]></desc>
      <rtept lat="45.5509" lon="5.9394">
        <ele>368</ele>
      </rtept>
      <rtept lat="45.55217" lon="5.93791">
        <ele>377</ele>
      </rtept>
    </rte>
  <rte>
    <name><![CDATA[10 févr. 2019 à 14:22:06]]></name>
    <cmt><![CDATA[10 févr. 2019 à 14:22:06]]></cmt>
    <desc><![CDATA[{DC1}Heure de fin	: 00:09:21
Durée totale	: -17690438h37:54
Moyenne globale	: -
Pente moyenne	: 5.62 %
Aire incluse	: 5.7967 ha
Détails par segments
distance  | durée    | vit.moy. | vit.max. | déniv. + | déniv -
   km     | hh:mn:ss |   km/h   |   km/h   |    m     |    m
     3.30 | 00:00:00 |      0.0 |      0.0 |        0 |        0{DC2}]]></desc>
      <rtept lat="45.55169" lon="5.93089">
        <ele>415</ele>
      </rtept>
      <rtept lat="45.5518" lon="5.93905">
        <ele>366</ele>
      </rtept>
    </rte>
  <rte>
    <name><![CDATA[10 févr. 2019 à 09:50:45]]></name>
    <cmt><![CDATA[10 févr. 2019 à 09:50:45]]></cmt>
    <desc><![CDATA[{DC1}Heure de fin	: 00:09:21
Durée totale	: -17690433h09:14
Moyenne globale	: -
Pente moyenne	: 0.00 %
Aire incluse	: 50.7119 ha
Détails par segments
distance  | durée    | vit.moy. | vit.max. | déniv. + | déniv -
   km     | hh:mn:ss |   km/h   |   km/h   |    m     |    m
     4.33 | 00:00:00 |      0.0 |      0.0 |        0 |        0{DC2}]]></desc>
      <rtept lat="45.5503" lon="5.93918">
        <ele>373.6</ele>
      </rtept>
      <rtept lat="45.55191" lon="5.93893">
        <ele>366.7</ele>
      </rtept>
    </rte>
  <rte>
    <name><![CDATA[10 févr. 2019 à 09:07:08]]></name>
    <cmt><![CDATA[10 févr. 2019 à 09:07:08]]></cmt>
    <desc><![CDATA[{DC1}Heure de fin	: 00:09:21
Durée totale	: -17690433h52:52
Moyenne globale	: -
Pente moyenne	: nan %
Aire incluse	: 0.0000 ha
Détails par segments
distance  | durée    | vit.moy. | vit.max. | déniv. + | déniv -
   km     | hh:mn:ss |   km/h   |   km/h   |    m     |    m
     0.00 | 00:00:00 |      0.0 |      0.0 |        0 |        0{DC2}]]></desc>
      <rtept lat="45.55102" lon="5.93919">
        <ele>370.1</ele>
      </rtept>
    </rte>
  <rte>
    <name><![CDATA[10 févr. 2019 à 09:02:25]]></name>
    <cmt><![CDATA[10 févr. 2019 à 09:02:25]]></cmt>
    <desc><![CDATA[{DC1}Heure de fin	: 00:09:21
Durée totale	: -17690433h57:35
Moyenne globale	: -
Pente moyenne	: nan %
Aire incluse	: 0.0000 ha
Détails par segments
distance  | durée    | vit.moy. | vit.max. | déniv. + | déniv -
   km     | hh:mn:ss |   km/h   |   km/h   |    m     |    m
     0.00 | 00:00:00 |      0.0 |      0.0 |        0 |        0{DC2}]]></desc>
      <rtept lat="45.55207" lon="5.93813">
        <ele>375.2</ele>
      </rtept>
    </rte>
  <rte>
    <name><![CDATA[10 févr. 2019 à 09:00:27]]></name>
    <cmt><![CDATA[10 févr. 2019 à 09:00:27]]></cmt>
    <desc><![CDATA[{DC1}Heure de fin	: 00:09:21
Durée totale	: -17690433h59:32
Moyenne globale	: -
Pente moyenne	: nan %
Aire incluse	: 0.0000 ha
Détails par segments
distance  | durée    | vit.moy. | vit.max. | déniv. + | déniv -
   km     | hh:mn:ss |   km/h   |   km/h   |    m     |    m
     0.00 | 00:00:00 |      0.0 |      0.0 |        0 |        0{DC2}]]></desc>
      <rtept lat="45.55244" lon="5.93858">
        <ele>366.6</ele>
      </rtept>
    </rte>
</gpx>